createdAt,value
2022-09-18T00:00:44.541Z,13.75
2022-09-18T00:01:54.144Z,13.76
2022-09-18T00:03:04.893Z,13.76
2022-09-18T00:04:15.272Z,13.72
2022-09-18T00:05:21.051Z,13.74
2022-09-18T00:06:29.446Z,13.73
2022-09-18T00:07:36.013Z,13.72
2022-09-18T00:08:41.281Z,13.69
2022-09-18T00:09:45.998Z,13.70
2022-09-18T00:10:49.769Z,13.70
2022-09-18T00:11:54.552Z,13.69
2022-09-18T00:12:58.662Z,13.67
2022-09-18T00:14:05.863Z,13.65
2022-09-18T00:15:10.385Z,13.59
2022-09-18T00:16:16.940Z,13.58
2022-09-18T00:17:20.853Z,13.57
2022-09-18T00:18:24.629Z,13.51
2022-09-18T00:19:29.065Z,13.45
2022-09-18T00:20:37.427Z,13.45
2022-09-18T00:21:47.973Z,13.42
2022-09-18T00:22:52.010Z,13.40
2022-09-18T00:24:00.582Z,13.34
2022-09-18T00:25:04.680Z,13.37
2022-09-18T00:26:10.880Z,13.31
2022-09-18T00:27:14.794Z,13.33
2022-09-18T00:28:18.633Z,13.32
2022-09-18T00:29:22.438Z,13.31
2022-09-18T00:30:26.531Z,13.29
2022-09-18T00:31:34.933Z,13.28
2022-09-18T00:32:39.628Z,13.28
2022-09-18T00:33:44.089Z,13.24
2022-09-18T00:34:47.894Z,13.30
2022-09-18T00:35:51.754Z,13.31
2022-09-18T00:36:55.666Z,13.27
2022-09-18T00:37:59.545Z,13.29
2022-09-18T00:39:04.372Z,13.24
2022-09-18T00:40:08.678Z,13.28
2022-09-18T00:41:24.010Z,13.23
2022-09-18T00:42:27.911Z,13.26
2022-09-18T00:43:34.901Z,13.24
2022-09-18T00:44:47.172Z,13.28
2022-09-18T00:46:04.319Z,13.24
2022-09-18T00:47:11.641Z,13.21
2022-09-18T00:48:15.558Z,13.21
2022-09-18T00:49:27.900Z,13.14
2022-09-18T00:50:31.820Z,13.19
2022-09-18T00:51:37.324Z,13.13
2022-09-18T00:52:52.348Z,13.16
2022-09-18T00:54:23.783Z,13.17
2022-09-18T00:55:34.399Z,13.15
2022-09-18T00:56:38.992Z,13.13
2022-09-18T00:57:51.760Z,13.16
2022-09-18T00:58:56.720Z,13.13
2022-09-18T01:00:10.987Z,13.12
2022-09-18T01:01:15.042Z,13.08
2022-09-18T01:02:22.814Z,13.08
2022-09-18T01:03:26.657Z,13.00
2022-09-18T01:04:31.535Z,13.04
2022-09-18T01:05:53.166Z,13.03
2022-09-18T01:07:37.640Z,13.00
2022-09-18T01:09:01.935Z,13.00
2022-09-18T01:10:57.804Z,12.98
2022-09-18T01:12:35.227Z,12.95
2022-09-18T01:14:08.296Z,12.95
2022-09-18T01:15:17.292Z,12.93
2022-09-18T01:16:39.488Z,12.90
2022-09-18T01:18:11.018Z,12.93
2022-09-18T01:20:20.814Z,12.91
2022-09-18T01:22:33.837Z,12.93
2022-09-18T01:24:21.201Z,12.92
2022-09-18T01:25:38.988Z,12.92
2022-09-18T01:26:59.217Z,12.94
2022-09-18T01:28:40.107Z,12.93
2022-09-18T01:30:07.280Z,12.93
2022-09-18T01:31:22.633Z,12.94
2022-09-18T01:32:37.349Z,12.92
2022-09-18T01:34:21.884Z,12.91
2022-09-18T01:35:42.194Z,12.93
2022-09-18T01:36:55.641Z,12.86
2022-09-18T01:38:41.256Z,12.92
2022-09-18T01:40:15.680Z,12.93
2022-09-18T01:41:25.305Z,12.91
2022-09-18T01:42:33.301Z,12.90
2022-09-18T01:43:40.741Z,12.89
2022-09-18T01:44:47.291Z,12.90
2022-09-18T01:45:58.661Z,12.91
2022-09-18T01:47:10.046Z,12.89
2022-09-18T01:48:34.647Z,12.89
2022-09-18T01:49:45.952Z,12.87
2022-09-18T01:51:02.221Z,12.84
2022-09-18T01:52:28.855Z,12.85
2022-09-18T01:53:42.216Z,12.84
2022-09-18T01:54:51.267Z,12.76
2022-09-18T01:56:06.452Z,12.81
2022-09-18T01:57:42.404Z,12.81
2022-09-18T01:58:49.667Z,12.80
2022-09-18T02:00:03.138Z,12.73
2022-09-18T02:01:15.964Z,12.76
2022-09-18T02:02:51.941Z,12.75
2022-09-18T02:04:09.216Z,12.69
2022-09-18T02:05:22.580Z,12.73
2022-09-18T02:07:14.295Z,12.72
2022-09-18T02:08:33.230Z,12.70
2022-09-18T02:09:36.998Z,12.69
2022-09-18T02:10:52.625Z,12.67
2022-09-18T02:12:00.839Z,12.70
2022-09-18T02:13:08.387Z,12.68
2022-09-18T02:14:19.556Z,12.69
2022-09-18T02:15:27.144Z,12.70
2022-09-18T02:16:44.653Z,12.68
2022-09-18T02:18:02.492Z,12.70
2022-09-18T02:19:34.407Z,12.68
2022-09-18T02:20:41.920Z,12.64
2022-09-18T02:21:50.279Z,12.65
2022-09-18T02:23:00.177Z,12.64
2022-09-18T02:24:12.986Z,12.62
2022-09-18T02:25:25.868Z,12.64
2022-09-18T02:26:31.988Z,12.62
2022-09-18T02:27:40.207Z,12.64
2022-09-18T02:28:46.028Z,12.62
2022-09-18T02:29:51.509Z,12.63
2022-09-18T02:30:55.104Z,12.63
2022-09-18T02:32:03.444Z,12.64
2022-09-18T02:33:33.657Z,12.62
2022-09-18T02:34:37.292Z,12.62
2022-09-18T02:35:49.721Z,12.60
2022-09-18T02:37:26.192Z,12.59
2022-09-18T02:38:44.448Z,12.57
2022-09-18T02:40:43.296Z,12.57
2022-09-18T02:42:03.013Z,12.56
2022-09-18T02:43:28.530Z,12.54
2022-09-18T02:44:59.308Z,12.52
2022-09-18T02:46:31.091Z,12.39
2022-09-18T02:48:11.113Z,12.41
2022-09-18T02:49:47.750Z,12.40
2022-09-18T02:51:51.699Z,12.40
2022-09-18T02:53:32.285Z,12.40
2022-09-18T02:54:58.131Z,12.40
2022-09-18T02:56:10.103Z,12.40
2022-09-18T02:57:37.771Z,12.41
2022-09-18T02:59:05.261Z,12.38
2022-09-18T03:00:15.655Z,12.34
2022-09-18T03:01:23.531Z,12.36
2022-09-18T03:02:28.067Z,12.33
2022-09-18T03:03:37.836Z,12.30
2022-09-18T03:04:41.426Z,12.28
2022-09-18T03:05:45.392Z,12.32
2022-09-18T03:06:49.089Z,12.30
2022-09-18T03:07:53.394Z,12.34
2022-09-18T03:08:57.454Z,12.32
2022-09-18T03:10:02.172Z,12.33
2022-09-18T03:11:06.809Z,12.35
2022-09-18T03:12:12.481Z,12.33
2022-09-18T03:13:16.596Z,12.33
2022-09-18T03:14:20.613Z,12.32
2022-09-18T03:15:24.165Z,12.31
2022-09-18T03:16:27.820Z,12.32
2022-09-18T03:17:31.485Z,12.32
2022-09-18T03:18:35.034Z,12.30
2022-09-18T03:19:38.631Z,12.30
2022-09-18T03:20:43.906Z,12.31
2022-09-18T03:21:47.724Z,12.22
2022-09-18T03:22:51.380Z,12.25
2022-09-18T03:23:55.620Z,12.26
2022-09-18T03:24:59.282Z,12.28
2022-09-18T03:26:02.831Z,12.27
2022-09-18T03:27:07.256Z,12.26
2022-09-18T03:28:11.047Z,12.27
2022-09-18T03:29:14.928Z,12.29
2022-09-18T03:30:18.640Z,12.25
2022-09-18T03:31:22.236Z,12.28
2022-09-18T03:32:26.074Z,12.30
2022-09-18T03:33:29.832Z,12.28
2022-09-18T03:34:33.405Z,12.26
2022-09-18T03:35:36.955Z,12.27
2022-09-18T03:36:40.655Z,12.26
2022-09-18T03:37:44.357Z,12.24
2022-09-18T03:38:48.014Z,12.23
2022-09-18T03:39:51.606Z,12.22
2022-09-18T03:40:55.490Z,12.19
2022-09-18T03:41:59.040Z,12.16
2022-09-18T03:43:02.705Z,12.23
2022-09-18T03:44:06.464Z,12.20
2022-09-18T03:45:11.960Z,12.16
2022-09-18T03:46:22.417Z,12.20
2022-09-18T03:47:26.984Z,12.17
2022-09-18T03:48:30.682Z,12.14
2022-09-18T03:49:34.454Z,12.13
2022-09-18T03:50:38.385Z,12.15
2022-09-18T03:51:42.202Z,12.15
2022-09-18T03:52:50.944Z,12.17
2022-09-18T03:53:55.098Z,12.12
2022-09-18T03:54:59.274Z,12.17
2022-09-18T03:56:02.955Z,12.15
2022-09-18T03:57:06.531Z,12.15
2022-09-18T03:58:10.433Z,12.11
2022-09-18T03:59:14.157Z,12.11
2022-09-18T04:00:19.667Z,12.10
2022-09-18T04:01:23.475Z,12.15
2022-09-18T04:02:27.259Z,12.15
2022-09-18T04:03:30.904Z,12.15
2022-09-18T04:04:34.579Z,12.10
2022-09-18T04:05:38.288Z,12.14
2022-09-18T04:06:41.914Z,12.14
2022-09-18T04:07:45.561Z,12.13
2022-09-18T04:08:50.110Z,12.15
2022-09-18T04:09:53.692Z,12.12
2022-09-18T04:10:57.417Z,12.10
2022-09-18T04:12:01.246Z,12.11
2022-09-18T04:13:05.119Z,12.10
2022-09-18T04:14:08.828Z,12.14
2022-09-18T04:15:12.603Z,12.06
2022-09-18T04:16:16.445Z,12.11
2022-09-18T04:17:20.056Z,12.06
2022-09-18T04:18:23.580Z,12.10
2022-09-18T04:19:27.133Z,12.07
2022-09-18T04:20:32.046Z,12.10
2022-09-18T04:21:35.786Z,12.07
2022-09-18T04:22:39.387Z,12.05
2022-09-18T04:23:42.917Z,12.04
2022-09-18T04:24:46.866Z,12.07
2022-09-18T04:25:50.555Z,12.04
2022-09-18T04:26:57.220Z,12.07
2022-09-18T04:28:00.861Z,12.05
2022-09-18T04:29:05.182Z,12.03
2022-09-18T04:30:09.949Z,12.07
2022-09-18T04:31:14.042Z,12.06
2022-09-18T04:32:17.732Z,11.98
2022-09-18T04:33:21.282Z,11.99
2022-09-18T04:34:24.844Z,11.96
2022-09-18T04:35:28.458Z,11.95
2022-09-18T04:36:32.144Z,11.92
2022-09-18T04:37:35.802Z,11.92
2022-09-18T04:38:39.665Z,11.90
2022-09-18T04:39:43.351Z,11.93
2022-09-18T04:40:58.097Z,11.93
2022-09-18T04:42:03.380Z,11.94
2022-09-18T04:43:10.530Z,11.87
2022-09-18T04:44:14.887Z,11.95
2022-09-18T04:45:18.637Z,11.94
2022-09-18T04:46:24.871Z,11.90
2022-09-18T04:47:28.713Z,11.92
2022-09-18T04:48:32.722Z,11.91
2022-09-18T04:49:36.682Z,11.91
2022-09-18T04:50:40.314Z,11.90
2022-09-18T04:51:44.616Z,11.90
2022-09-18T04:52:48.585Z,11.94
2022-09-18T04:53:52.993Z,11.91
2022-09-18T04:54:57.814Z,11.93
2022-09-18T04:56:01.753Z,11.91
2022-09-18T04:57:05.853Z,11.91
2022-09-18T04:58:09.767Z,11.94
2022-09-18T04:59:13.541Z,11.93
2022-09-18T05:00:17.343Z,11.92
2022-09-18T05:01:21.055Z,11.90
2022-09-18T05:02:25.014Z,11.87
2022-09-18T05:03:29.085Z,11.80
2022-09-18T05:04:32.711Z,11.82
2022-09-18T05:05:36.552Z,11.82
2022-09-18T05:06:40.411Z,11.83
2022-09-18T05:07:44.224Z,11.83
2022-09-18T05:08:48.259Z,11.83
2022-09-18T05:09:52.108Z,11.78
2022-09-18T05:10:56.231Z,11.73
2022-09-18T05:12:00.100Z,11.70
2022-09-18T05:13:03.570Z,11.76
2022-09-18T05:14:07.437Z,11.75
2022-09-18T05:15:12.098Z,11.74
2022-09-18T05:16:16.940Z,11.75
2022-09-18T05:17:21.396Z,11.76
2022-09-18T05:18:25.789Z,11.75
2022-09-18T05:19:30.364Z,11.73
2022-09-18T05:20:35.939Z,11.73
2022-09-18T05:21:39.944Z,11.75
2022-09-18T05:22:47.288Z,11.77
2022-09-18T05:23:50.947Z,11.79
2022-09-18T05:24:54.740Z,11.81
2022-09-18T05:25:58.567Z,11.80
2022-09-18T05:27:02.289Z,11.79
2022-09-18T05:28:06.036Z,11.81
2022-09-18T05:29:09.657Z,11.83
2022-09-18T05:30:13.290Z,11.79
2022-09-18T05:31:17.640Z,11.84
2022-09-18T05:32:21.455Z,11.78
2022-09-18T05:33:26.211Z,11.81
2022-09-18T05:34:33.446Z,11.82
2022-09-18T05:35:38.851Z,11.84
2022-09-18T05:36:42.833Z,11.84
2022-09-18T05:37:46.455Z,11.86
2022-09-18T05:38:51.678Z,11.84
2022-09-18T05:39:55.545Z,11.88
2022-09-18T05:41:02.139Z,11.88
2022-09-18T05:42:09.314Z,11.87
2022-09-18T05:43:13.125Z,11.87
2022-09-18T05:44:17.913Z,11.90
2022-09-18T05:45:22.502Z,11.87
2022-09-18T05:46:27.678Z,11.87
2022-09-18T05:47:33.441Z,11.88
2022-09-18T05:48:37.362Z,11.86
2022-09-18T05:49:40.914Z,11.90
2022-09-18T05:50:44.508Z,11.92
2022-09-18T05:51:48.179Z,11.95
2022-09-18T05:53:06.605Z,11.98
2022-09-18T05:54:10.253Z,11.99
2022-09-18T05:55:14.256Z,12.08
2022-09-18T05:56:18.120Z,12.14
2022-09-18T05:57:21.906Z,12.12
2022-09-18T05:58:25.609Z,12.24
2022-09-18T05:59:29.459Z,12.30
2022-09-18T06:00:35.656Z,12.35
2022-09-18T06:01:41.684Z,12.39
2022-09-18T06:03:03.380Z,12.40
2022-09-18T06:04:06.988Z,12.46
2022-09-18T06:05:10.588Z,12.50
2022-09-18T06:06:14.276Z,12.56
2022-09-18T06:07:18.285Z,12.62
2022-09-18T06:08:23.049Z,12.71
2022-09-18T06:09:27.839Z,12.85
2022-09-18T06:10:34.268Z,13.02
2022-09-18T06:11:37.866Z,13.18
2022-09-18T06:12:41.713Z,13.36
2022-09-18T06:13:49.301Z,13.55
2022-09-18T06:14:52.925Z,13.71
2022-09-18T06:15:57.585Z,13.92
2022-09-18T06:17:01.185Z,14.10
2022-09-18T06:18:07.155Z,14.25
2022-09-18T06:19:11.170Z,14.43
2022-09-18T06:20:15.371Z,14.55
2022-09-18T06:21:19.113Z,14.65
2022-09-18T06:22:22.740Z,14.69
2022-09-18T06:23:29.230Z,14.69
2022-09-18T06:24:33.132Z,14.73
2022-09-18T06:25:36.969Z,14.79
2022-09-18T06:26:40.940Z,14.79
2022-09-18T06:27:44.734Z,14.77
2022-09-18T06:28:48.468Z,14.72
2022-09-18T06:29:53.385Z,14.72
2022-09-18T06:30:59.223Z,14.65
2022-09-18T06:32:03.177Z,14.63
2022-09-18T06:33:10.588Z,14.61
2022-09-18T06:34:14.199Z,14.54
2022-09-18T06:35:18.815Z,14.56
2022-09-18T06:36:22.709Z,14.47
2022-09-18T06:37:29.351Z,14.51
2022-09-18T06:38:35.699Z,14.51
2022-09-18T06:39:39.396Z,14.51
2022-09-18T06:40:53.233Z,14.50
2022-09-18T06:41:59.012Z,14.50
2022-09-18T06:43:03.753Z,14.54
2022-09-18T06:44:07.429Z,14.64
2022-09-18T06:45:11.783Z,14.76
2022-09-18T06:46:15.524Z,14.84
2022-09-18T06:47:19.140Z,14.95
2022-09-18T06:48:24.670Z,15.08
2022-09-18T06:49:28.246Z,15.20
2022-09-18T06:50:32.056Z,15.28
2022-09-18T06:51:36.043Z,15.46
2022-09-18T06:52:39.570Z,15.64
2022-09-18T06:53:43.469Z,15.70
2022-09-18T06:54:46.986Z,15.76
2022-09-18T06:55:51.386Z,15.73
2022-09-18T06:56:55.008Z,15.68
2022-09-18T06:58:00.802Z,15.67
2022-09-18T06:59:04.682Z,15.76
2022-09-18T07:00:11.888Z,15.98
2022-09-18T07:01:16.753Z,16.14
2022-09-18T07:02:20.470Z,16.33
2022-09-18T07:03:26.640Z,16.57
2022-09-18T07:04:30.309Z,16.76
2022-09-18T07:05:34.496Z,16.98
2022-09-18T07:06:38.117Z,17.26
2022-09-18T07:07:46.435Z,17.43
2022-09-18T07:08:50.442Z,17.54
2022-09-18T07:09:54.205Z,17.53
2022-09-18T07:11:02.543Z,17.64
2022-09-18T07:12:09.757Z,17.71
2022-09-18T07:13:13.819Z,17.90
2022-09-18T07:14:17.467Z,18.13
2022-09-18T07:15:21.112Z,18.33
2022-09-18T07:16:24.825Z,18.31
2022-09-18T07:17:28.325Z,18.42
2022-09-18T07:18:32.921Z,18.50
2022-09-18T07:19:37.060Z,18.61
2022-09-18T07:20:40.751Z,18.85
2022-09-18T07:21:44.618Z,19.05
2022-09-18T07:22:57.327Z,19.27
2022-09-18T07:24:01.301Z,19.49
2022-09-18T07:25:06.994Z,19.48
2022-09-18T07:26:10.681Z,19.31
2022-09-18T07:27:14.841Z,19.15
2022-09-18T07:28:18.585Z,18.96
2022-09-18T07:29:22.279Z,18.77
2022-09-18T07:30:25.867Z,18.76
2022-09-18T07:31:29.577Z,18.79
2022-09-18T07:32:36.176Z,18.91
2022-09-18T07:33:40.629Z,19.00
2022-09-18T07:34:44.368Z,19.02
2022-09-18T07:35:48.612Z,18.91
2022-09-18T07:36:52.287Z,18.76
2022-09-18T07:38:06.018Z,18.65
2022-09-18T07:39:09.573Z,18.48
2022-09-18T07:40:13.199Z,18.39
2022-09-18T07:41:17.319Z,18.23
2022-09-18T07:42:21.908Z,18.10
2022-09-18T07:43:25.809Z,17.98
2022-09-18T07:44:30.984Z,17.84
2022-09-18T07:45:35.947Z,17.66
2022-09-18T07:46:39.780Z,17.55
2022-09-18T07:47:43.661Z,17.43
2022-09-18T07:48:47.301Z,17.36
2022-09-18T07:49:51.251Z,17.26
2022-09-18T07:50:59.232Z,16.92
2022-09-18T07:52:03.496Z,16.90
2022-09-18T07:53:09.092Z,16.76
2022-09-18T07:54:12.721Z,16.67
2022-09-18T07:55:16.574Z,16.51
2022-09-18T07:56:20.660Z,16.38
2022-09-18T07:57:24.330Z,16.31
2022-09-18T07:58:28.420Z,16.21
2022-09-18T07:59:31.900Z,16.08
2022-09-18T08:00:37.845Z,15.98
2022-09-18T08:01:41.827Z,15.98
2022-09-18T08:02:46.588Z,16.01
2022-09-18T08:03:50.667Z,16.09
2022-09-18T08:04:55.224Z,16.06
2022-09-18T08:05:58.894Z,16.02
2022-09-18T08:07:04.480Z,16.02
2022-09-18T08:08:14.360Z,15.94
2022-09-18T08:09:18.187Z,15.82
2022-09-18T08:10:21.976Z,15.71
2022-09-18T08:11:25.579Z,15.65
2022-09-18T08:12:29.270Z,15.60
2022-09-18T08:13:33.226Z,15.48
2022-09-18T08:14:38.247Z,15.43
2022-09-18T08:15:43.501Z,15.38
2022-09-18T08:16:47.806Z,15.33
2022-09-18T08:17:52.051Z,15.28
2022-09-18T08:18:57.571Z,15.27
2022-09-18T08:20:01.818Z,15.12
2022-09-18T08:21:10.342Z,15.11
2022-09-18T08:22:14.300Z,15.09
2022-09-18T08:23:17.994Z,15.07
2022-09-18T08:24:21.588Z,15.05
2022-09-18T08:25:27.768Z,15.11
2022-09-18T08:26:31.395Z,15.22
2022-09-18T08:27:38.907Z,15.45
2022-09-18T08:28:42.741Z,15.57
2022-09-18T08:29:46.337Z,15.82
2022-09-18T08:30:50.161Z,16.17
2022-09-18T08:31:53.882Z,16.61
2022-09-18T08:33:07.097Z,17.17
2022-09-18T08:34:10.738Z,17.67
2022-09-18T08:35:14.251Z,18.09
2022-09-18T08:36:17.812Z,18.51
2022-09-18T08:37:21.387Z,18.82
2022-09-18T08:38:25.259Z,19.05
2022-09-18T08:39:29.018Z,19.17
2022-09-18T08:41:24.131Z,19.34
2022-09-18T08:43:16.769Z,19.34
2022-09-18T08:44:28.666Z,19.31
2022-09-18T08:46:00.501Z,19.27
2022-09-18T08:47:27.946Z,18.94
2022-09-18T08:48:56.639Z,18.79
2022-09-18T08:50:24.446Z,18.68
2022-09-18T08:52:23.771Z,18.43
2022-09-18T08:53:57.055Z,18.05
2022-09-18T08:55:10.599Z,17.81
2022-09-18T08:56:21.438Z,17.59
2022-09-18T08:57:44.110Z,17.45
2022-09-18T08:58:58.058Z,17.43
2022-09-18T09:00:27.185Z,17.63
2022-09-18T09:01:49.976Z,17.64
2022-09-18T09:03:04.394Z,17.82
2022-09-18T09:04:20.469Z,18.54
2022-09-18T09:05:37.210Z,19.62
2022-09-18T09:07:20.383Z,20.74
2022-09-18T09:08:44.105Z,21.59
2022-09-18T09:10:20.302Z,22.22
2022-09-18T09:11:42.624Z,22.51
2022-09-18T09:13:11.005Z,22.20
2022-09-18T09:14:57.620Z,21.67
2022-09-18T09:16:18.695Z,20.98
2022-09-18T09:17:54.352Z,20.34
2022-09-18T09:19:14.157Z,19.82
2022-09-18T09:20:42.061Z,19.22
2022-09-18T09:21:54.766Z,18.81
2022-09-18T09:23:37.927Z,18.18
2022-09-18T09:24:58.358Z,17.68
2022-09-18T09:26:28.749Z,17.30
2022-09-18T09:28:13.378Z,17.17
2022-09-18T09:29:30.458Z,17.25
2022-09-18T09:30:36.789Z,17.27
2022-09-18T09:31:49.390Z,17.34
2022-09-18T09:33:16.667Z,17.46
2022-09-18T09:34:30.396Z,17.54
2022-09-18T09:35:48.587Z,17.54
2022-09-18T09:36:57.803Z,17.44
2022-09-18T09:38:17.201Z,17.42
2022-09-18T09:39:52.469Z,17.38
2022-09-18T09:41:04.822Z,17.37
2022-09-18T09:42:48.459Z,17.43
2022-09-18T09:44:25.772Z,17.41
2022-09-18T09:45:52.401Z,17.40
2022-09-18T09:47:33.925Z,17.27
2022-09-18T09:49:14.355Z,17.18
2022-09-18T09:51:17.665Z,17.14
2022-09-18T09:52:31.901Z,17.02
2022-09-18T09:53:36.147Z,16.88
2022-09-18T09:55:08.040Z,16.72
2022-09-18T09:56:43.158Z,16.61
2022-09-18T09:57:55.186Z,16.59
2022-09-18T09:59:27.114Z,16.45
2022-09-18T10:00:46.829Z,16.51
2022-09-18T10:02:14.029Z,16.49
2022-09-18T10:03:29.131Z,16.48
2022-09-18T10:04:49.831Z,16.41
2022-09-18T10:06:31.422Z,16.25
2022-09-18T10:07:49.319Z,16.17
2022-09-18T10:09:24.419Z,15.96
2022-09-18T10:10:46.275Z,15.85
2022-09-18T10:12:25.404Z,15.76
2022-09-18T10:14:03.087Z,15.65
2022-09-18T10:15:36.688Z,15.63
2022-09-18T10:16:56.709Z,15.63
2022-09-18T10:18:06.092Z,15.61
2022-09-18T10:19:17.421Z,15.64
2022-09-18T10:20:32.274Z,15.67
2022-09-18T10:21:38.779Z,15.68
2022-09-18T10:22:42.836Z,15.62
2022-09-18T10:24:01.142Z,15.72
2022-09-18T10:25:20.678Z,15.68
2022-09-18T10:26:31.724Z,15.72
2022-09-18T10:27:35.341Z,15.69
2022-09-18T10:28:39.135Z,15.71
2022-09-18T10:29:43.904Z,15.67
2022-09-18T10:31:10.861Z,15.64
2022-09-18T10:32:37.716Z,15.62
2022-09-18T10:33:49.480Z,15.55
2022-09-18T10:34:53.247Z,15.42
2022-09-18T10:36:09.020Z,15.38
2022-09-18T10:37:40.451Z,15.20
2022-09-18T10:38:44.121Z,15.14
2022-09-18T10:39:54.517Z,15.06
2022-09-18T10:41:32.272Z,14.93
2022-09-18T10:42:37.720Z,14.86
2022-09-18T10:43:54.473Z,14.80
2022-09-18T10:45:05.116Z,14.79
2022-09-18T10:46:08.880Z,14.79
2022-09-18T10:47:21.634Z,14.76
2022-09-18T10:48:27.459Z,14.77
2022-09-18T10:50:19.491Z,14.84
2022-09-18T10:51:25.895Z,14.90
2022-09-18T10:52:49.271Z,14.94
2022-09-18T10:54:35.198Z,15.19
2022-09-18T10:55:53.854Z,15.27
2022-09-18T10:57:29.482Z,15.47
2022-09-18T10:58:34.582Z,15.59
2022-09-18T10:59:38.086Z,15.63
2022-09-18T11:00:56.554Z,15.68
2022-09-18T11:02:05.584Z,15.65
2022-09-18T11:03:47.226Z,15.56
2022-09-18T11:04:51.243Z,15.44
2022-09-18T11:06:01.959Z,15.45
2022-09-18T11:07:07.702Z,15.34
2022-09-18T11:08:20.043Z,15.42
2022-09-18T11:09:39.610Z,15.45
2022-09-18T11:10:50.775Z,15.44
2022-09-18T11:11:54.888Z,15.48
2022-09-18T11:13:02.428Z,15.44
2022-09-18T11:14:22.272Z,15.53
2022-09-18T11:15:31.585Z,15.50
2022-09-18T11:16:50.773Z,15.52
2022-09-18T11:17:59.020Z,15.50
2022-09-18T11:19:34.494Z,15.47
2022-09-18T11:20:47.688Z,15.50
2022-09-18T11:21:56.135Z,15.44
2022-09-18T11:23:19.635Z,15.38
2022-09-18T11:24:24.510Z,15.34
2022-09-18T11:25:29.788Z,15.27
2022-09-18T11:26:33.496Z,15.18
2022-09-18T11:27:53.806Z,15.06
2022-09-18T11:29:27.126Z,14.85
2022-09-18T11:30:35.763Z,14.67
2022-09-18T11:31:48.219Z,14.49
2022-09-18T11:33:22.260Z,14.34
2022-09-18T11:34:37.296Z,14.18
2022-09-18T11:35:56.283Z,14.12
2022-09-18T11:37:15.019Z,13.96
2022-09-18T11:38:20.219Z,13.92
2022-09-18T11:39:39.211Z,13.82
2022-09-18T11:40:50.011Z,13.79
2022-09-18T11:41:55.464Z,13.71
2022-09-18T11:43:05.640Z,13.73
2022-09-18T11:44:32.686Z,13.74
2022-09-18T11:45:39.104Z,13.75
2022-09-18T11:47:33.148Z,13.78
2022-09-18T11:49:04.604Z,13.83
2022-09-18T11:50:29.810Z,13.81
2022-09-18T11:52:03.380Z,13.92
2022-09-18T11:53:27.946Z,13.99
2022-09-18T11:54:44.321Z,14.06
2022-09-18T11:56:16.945Z,14.13
2022-09-18T11:57:53.917Z,14.21
2022-09-18T11:59:09.656Z,14.32
2022-09-18T12:00:21.713Z,14.29
2022-09-18T12:01:31.726Z,14.49
2022-09-18T12:03:01.008Z,14.53
2022-09-18T12:04:17.866Z,14.50
2022-09-18T12:05:35.223Z,14.51
2022-09-18T12:09:38.470Z,14.56
2022-09-18T12:10:56.773Z,14.62
2022-09-18T12:12:12.935Z,14.65
2022-09-18T12:13:48.394Z,14.71
2022-09-18T12:15:04.935Z,14.75
2022-09-18T12:16:35.236Z,14.81
2022-09-18T12:18:16.499Z,14.74
2022-09-18T12:19:48.188Z,14.73
2022-09-18T12:21:09.921Z,14.73
2022-09-18T12:22:25.401Z,14.69
2022-09-18T12:23:29.626Z,14.62
2022-09-18T12:24:34.245Z,14.53
2022-09-18T12:25:48.133Z,14.46
2022-09-18T12:27:24.165Z,14.39
2022-09-18T12:29:11.453Z,14.41
2022-09-18T12:30:22.092Z,14.39
2022-09-18T12:31:55.786Z,14.46
2022-09-18T12:33:26.257Z,14.52
2022-09-18T12:34:32.905Z,14.48
2022-09-18T12:35:45.432Z,14.49
2022-09-18T12:37:38.482Z,14.50
2022-09-18T12:39:29.027Z,14.49
2022-09-18T12:41:03.864Z,14.50
2022-09-18T12:42:22.921Z,14.53
2022-09-18T12:43:50.420Z,14.51
2022-09-18T12:45:32.351Z,14.56
2022-09-18T12:47:41.327Z,14.58
2022-09-18T12:49:27.904Z,14.57
2022-09-18T12:50:59.510Z,14.55
2022-09-18T12:52:27.642Z,14.53
2022-09-18T12:54:18.633Z,14.54
2022-09-18T12:55:43.198Z,14.57
2022-09-18T12:57:23.371Z,14.55
2022-09-18T12:58:56.654Z,14.51
2022-09-18T13:00:11.083Z,14.48
2022-09-18T13:01:33.039Z,14.50
2022-09-18T13:03:04.498Z,14.50
2022-09-18T13:04:31.863Z,14.48
2022-09-18T13:05:58.359Z,14.44
2022-09-18T13:07:33.632Z,14.39
2022-09-18T13:08:50.379Z,14.37
2022-09-18T13:10:21.461Z,14.36
2022-09-18T13:11:33.059Z,14.32
2022-09-18T13:12:53.542Z,14.26
2022-09-18T13:14:25.771Z,14.21
2022-09-18T13:15:46.179Z,14.18
2022-09-18T13:16:56.210Z,14.12
2022-09-18T13:18:22.154Z,14.01
2022-09-18T13:19:45.591Z,13.94
2022-09-18T13:20:50.996Z,13.91
2022-09-18T13:22:17.765Z,13.81
2022-09-18T13:23:42.794Z,13.76
2022-09-18T13:24:55.444Z,13.72
2022-09-18T13:26:01.256Z,13.68
2022-09-18T13:27:12.962Z,13.61
2022-09-18T13:28:21.503Z,13.61
2022-09-18T13:29:52.940Z,13.58
2022-09-18T13:31:15.519Z,13.55
2022-09-18T13:32:37.146Z,13.55
2022-09-18T13:34:06.131Z,13.58
2022-09-18T13:35:24.686Z,13.43
2022-09-18T13:36:36.807Z,13.47
2022-09-18T13:37:43.642Z,13.53
2022-09-18T13:38:50.713Z,13.51
2022-09-18T13:40:10.207Z,13.59
2022-09-18T13:41:15.053Z,13.60
2022-09-18T13:42:41.363Z,13.64
2022-09-18T13:43:57.556Z,13.68
2022-09-18T13:45:17.054Z,13.69
2022-09-18T13:46:39.881Z,13.65
2022-09-18T13:48:30.347Z,13.65
2022-09-18T13:49:55.552Z,13.51
2022-09-18T13:51:18.296Z,13.54
2022-09-18T13:52:33.472Z,13.51
2022-09-18T13:53:38.443Z,13.42
2022-09-18T13:55:16.391Z,13.35
2022-09-18T13:56:20.023Z,13.27
2022-09-18T13:57:33.423Z,13.28
2022-09-18T13:58:52.922Z,13.20
2022-09-18T14:00:00.596Z,13.17
2022-09-18T14:01:09.909Z,13.16
2022-09-18T14:02:39.830Z,13.20
2022-09-18T14:03:43.474Z,13.21
2022-09-18T14:04:50.047Z,13.26
2022-09-18T14:05:55.348Z,13.30
2022-09-18T14:06:59.025Z,13.31
2022-09-18T14:08:19.452Z,13.31
2022-09-18T14:10:04.221Z,13.29
2022-09-18T14:11:15.934Z,13.28
2022-09-18T14:12:22.983Z,13.26
2022-09-18T14:13:40.039Z,13.23
2022-09-18T14:14:56.512Z,13.17
2022-09-18T14:16:06.380Z,13.18
2022-09-18T14:17:16.592Z,13.17
2022-09-18T14:18:31.382Z,13.18
2022-09-18T14:19:37.099Z,13.23
2022-09-18T14:20:49.278Z,13.28
2022-09-18T14:21:54.148Z,13.34
2022-09-18T14:23:38.709Z,13.40
2022-09-18T14:25:05.295Z,13.46
2022-09-18T14:26:37.337Z,13.47
2022-09-18T14:27:57.342Z,13.48
2022-09-18T14:29:14.914Z,13.48
2022-09-18T14:30:26.972Z,13.47
2022-09-18T14:31:45.026Z,13.47
2022-09-18T14:33:05.223Z,13.41
2022-09-18T14:34:37.964Z,13.41
2022-09-18T14:36:06.057Z,13.40
2022-09-18T14:37:35.100Z,13.37
2022-09-18T14:38:40.359Z,13.35
2022-09-18T14:39:44.171Z,13.31
2022-09-18T14:41:06.028Z,13.32
2022-09-18T14:42:28.688Z,13.33
2022-09-18T14:43:41.707Z,13.33
2022-09-18T14:44:54.308Z,13.27
2022-09-18T14:45:58.489Z,13.24
2022-09-18T14:47:06.498Z,13.25
2022-09-18T14:48:35.101Z,13.26
2022-09-18T14:49:44.980Z,13.19
2022-09-18T14:51:01.889Z,13.20
2022-09-18T14:52:31.986Z,13.20
2022-09-18T14:53:45.581Z,13.19
2022-09-18T14:54:52.508Z,13.18
2022-09-18T14:56:05.971Z,13.16
2022-09-18T14:57:16.723Z,13.16
2022-09-18T14:58:23.283Z,13.07
2022-09-18T14:59:29.037Z,13.01
2022-09-18T15:00:36.971Z,13.00
2022-09-18T15:01:41.340Z,13.04
2022-09-18T15:02:56.587Z,13.07
2022-09-18T15:04:04.388Z,13.08
2022-09-18T15:05:12.785Z,13.03
2022-09-18T15:06:35.990Z,13.07
2022-09-18T15:07:54.470Z,13.06
2022-09-18T15:08:59.017Z,13.00
2022-09-18T15:10:05.696Z,13.02
2022-09-18T15:11:15.427Z,12.91
2022-09-18T15:12:31.726Z,12.95
2022-09-18T15:13:37.970Z,12.89
2022-09-18T15:14:47.303Z,12.87
2022-09-18T15:16:05.661Z,12.90
2022-09-18T15:17:21.860Z,12.92
2022-09-18T15:18:29.705Z,12.91
2022-09-18T15:19:34.228Z,12.92
2022-09-18T15:20:38.525Z,12.89
2022-09-18T15:21:48.480Z,12.89
2022-09-18T15:22:53.508Z,12.91
2022-09-18T15:23:58.171Z,12.85
2022-09-18T15:25:02.182Z,12.89
2022-09-18T15:26:16.029Z,12.95
2022-09-18T15:27:21.984Z,12.96
2022-09-18T15:28:30.942Z,13.01
2022-09-18T15:30:03.659Z,13.02
2022-09-18T15:31:10.969Z,13.03
2022-09-18T15:32:44.046Z,13.02
2022-09-18T15:34:11.696Z,13.04
2022-09-18T15:35:37.158Z,13.01
2022-09-18T15:36:41.766Z,13.07
2022-09-18T15:37:59.802Z,13.09
2022-09-18T15:39:23.904Z,13.04
2022-09-18T15:40:36.722Z,13.10
2022-09-18T15:41:44.912Z,13.08
2022-09-18T15:43:02.331Z,13.07
2022-09-18T15:44:24.933Z,13.11